Bovine, Arkansas
Current Conditions -  °F | °C
As of 10:15 AM on Monday 24 Nov 2014 (Local Time) from KBQP Reporting Station
Clear Clear  
Wind Chill: 56°   Ceiling: Unl
Heat Index: 56°   Visibility: 10mi
Dew Point: 35°   Wind: 7mph
Humidity: 45%   Direction: 320°NW
Pressure: 29.99"   Gusts: 16mph
Location:  33.1762°N, 91.7595°W
Report Text: KBQP 241615Z AUTO 32006G14KT 10SM CLR 14/02 A2999 RMK AO2 T01350018
Loading
Personal Weather Stations






























Interactive Weather Map New forecast layout! Learn more

10-Day Weather Forecast

Advertisements
Track Severe Weather on mobile